createdAt,value
2019-05-15T00:00:11.332Z,97251.08
2019-05-15T00:02:39.072Z,97242.54
2019-05-15T00:05:08.821Z,97225.31
2019-05-15T00:07:34.029Z,97228.55
2019-05-15T00:10:01.530Z,97218.34
2019-05-15T00:12:29.052Z,97220.31
2019-05-15T00:14:58.092Z,97212.53
2019-05-15T00:17:24.122Z,97229.69
2019-05-15T00:19:51.764Z,97236.00
2019-05-15T00:22:19.210Z,97225.95
2019-05-15T00:24:48.678Z,97227.91
2019-05-15T00:27:15.313Z,97235.06
2019-05-15T00:29:43.035Z,97242.34
2019-05-15T00:32:10.496Z,97243.44
2019-05-15T00:34:38.297Z,97246.17
2019-05-15T00:37:05.773Z,97248.52
2019-05-15T00:39:33.209Z,97242.40
2019-05-15T00:42:00.656Z,97249.89
2019-05-15T00:44:28.165Z,97249.13
2019-05-15T00:46:55.607Z,97246.45
2019-05-15T00:49:23.043Z,97265.34
2019-05-15T00:51:50.518Z,97273.98
2019-05-15T00:54:19.181Z,97255.74
2019-05-15T00:56:45.584Z,97248.84
2019-05-15T00:59:24.176Z,97244.73
2019-05-15T01:01:40.512Z,97240.88
2019-05-15T01:04:08.129Z,97241.41
2019-05-15T01:06:35.447Z,97246.03
2019-05-15T01:09:03.166Z,97245.95
2019-05-15T01:11:31.408Z,97232.73
2019-05-15T01:13:58.919Z,97234.78
2019-05-15T01:16:28.129Z,97228.38
2019-05-15T01:18:53.853Z,97232.30
2019-05-15T01:21:21.294Z,97224.45
2019-05-15T01:23:48.852Z,97228.42
2019-05-15T01:26:18.660Z,97225.47
2019-05-15T01:28:43.792Z,97209.90
2019-05-15T01:31:11.259Z,97217.54
2019-05-15T01:33:39.243Z,97220.89
2019-05-15T01:36:08.420Z,97226.66
2019-05-15T01:38:33.838Z,97217.01
2019-05-15T01:41:01.284Z,97220.22
2019-05-15T01:43:29.264Z,97191.33
2019-05-15T01:45:58.734Z,97204.71
2019-05-15T01:48:23.723Z,97212.14
2019-05-15T01:50:51.197Z,97201.97
2019-05-15T01:53:18.827Z,97199.09
2019-05-15T01:55:48.255Z,97187.95
2019-05-15T01:58:13.665Z,97197.34
2019-05-15T02:00:41.122Z,97185.05
2019-05-15T02:03:09.785Z,97187.11
2019-05-15T02:05:38.817Z,97177.07
2019-05-15T02:08:03.973Z,97169.52
2019-05-15T02:10:31.411Z,97180.03
2019-05-15T02:12:59.671Z,97179.32
2019-05-15T02:15:28.581Z,97176.86
2019-05-15T02:17:54.663Z,97166.12
2019-05-15T02:20:22.107Z,97155.63
2019-05-15T02:22:49.580Z,97165.33
2019-05-15T02:25:18.547Z,97153.27
2019-05-15T02:27:44.612Z,97170.84
2019-05-15T02:30:21.390Z,97147.28
2019-05-15T02:32:40.254Z,97126.21
2019-05-15T02:35:09.922Z,97107.05
2019-05-15T02:37:34.695Z,97135.70
2019-05-15T02:40:02.323Z,97108.74
2019-05-15T02:42:30.010Z,97108.33
2019-05-15T02:44:58.662Z,97101.23
2019-05-15T02:47:24.937Z,97104.48
2019-05-15T02:49:52.402Z,97112.64
2019-05-15T02:52:20.235Z,97110.39
2019-05-15T02:54:49.785Z,97114.84
2019-05-15T02:57:14.976Z,97099.98
2019-05-15T02:59:42.775Z,97086.52
2019-05-15T03:02:10.513Z,97099.78
2019-05-15T03:04:39.987Z,97086.61
2019-05-15T03:07:09.381Z,97084.54
2019-05-15T03:09:33.285Z,97078.89
2019-05-15T03:12:00.761Z,97080.95
2019-05-15T03:14:29.087Z,97083.63
2019-05-15T03:16:55.710Z,97084.38
2019-05-15T03:19:23.243Z,97076.59
2019-05-15T03:21:50.808Z,97059.73
2019-05-15T03:24:19.454Z,97048.55
2019-05-15T03:26:45.739Z,97039.58
2019-05-15T03:29:13.177Z,97027.02
2019-05-15T03:31:59.108Z,97026.67
2019-05-15T03:34:19.283Z,97017.72
2019-05-15T03:36:35.625Z,97040.09
2019-05-15T03:39:03.673Z,97035.48
2019-05-15T03:41:31.195Z,97039.78
2019-05-15T03:43:59.603Z,97046.13
2019-05-15T03:46:29.165Z,97051.00
2019-05-15T03:48:54.353Z,97047.47
2019-05-15T03:51:21.367Z,97065.70
2019-05-15T03:53:49.774Z,97062.38
2019-05-15T03:56:18.887Z,97058.76
2019-05-15T03:58:43.778Z,97067.19
2019-05-15T04:01:28.347Z,97055.31
2019-05-15T04:03:39.789Z,97062.38
2019-05-15T04:06:10.173Z,97049.09
2019-05-15T04:08:34.760Z,97069.28
2019-05-15T04:11:02.198Z,97066.05
2019-05-15T04:13:30.205Z,97060.02
2019-05-15T04:15:59.328Z,97037.70
2019-05-15T04:18:25.024Z,97054.80
2019-05-15T04:20:53.990Z,97056.48
2019-05-15T04:23:21.559Z,97048.36
2019-05-15T04:25:49.440Z,97047.59
2019-05-15T04:28:19.237Z,97044.93
2019-05-15T04:30:44.455Z,97047.23
2019-05-15T04:33:11.991Z,97045.16
2019-05-15T04:35:40.650Z,97045.67
2019-05-15T04:38:09.398Z,97038.90
2019-05-15T04:40:39.246Z,97047.34
2019-05-15T04:43:03.892Z,97050.20
2019-05-15T04:45:34.889Z,97057.67
2019-05-15T04:47:59.085Z,97064.51
2019-05-15T04:50:28.759Z,97045.28
2019-05-15T04:52:54.084Z,97052.56
2019-05-15T04:55:22.235Z,97053.67
2019-05-15T04:57:50.273Z,97032.73
2019-05-15T05:00:19.884Z,97030.67
2019-05-15T05:02:44.675Z,97041.66
2019-05-15T05:05:12.274Z,97048.15
2019-05-15T05:07:40.146Z,97037.80
2019-05-15T05:10:09.529Z,97032.22
2019-05-15T05:12:35.092Z,97028.75
2019-05-15T05:15:02.558Z,97023.36
2019-05-15T05:17:30.066Z,97018.97
2019-05-15T05:19:58.331Z,97024.19
2019-05-15T05:22:25.225Z,97000.50
2019-05-15T05:24:52.690Z,97018.65
2019-05-15T05:27:20.121Z,97035.92
2019-05-15T05:29:48.080Z,97037.37
2019-05-15T05:32:28.810Z,97054.77
2019-05-15T05:34:42.540Z,97053.41
2019-05-15T05:37:10.092Z,97052.60
2019-05-15T05:39:39.314Z,97058.55
2019-05-15T05:42:05.273Z,97070.89
2019-05-15T05:44:32.741Z,97077.22
2019-05-15T05:47:00.198Z,97100.06
2019-05-15T05:49:28.835Z,97101.21
2019-05-15T05:51:55.128Z,97096.87
2019-05-15T05:54:22.723Z,97107.91
2019-05-15T05:56:50.185Z,97117.89
2019-05-15T05:59:18.552Z,97116.48
2019-05-15T06:01:45.142Z,97113.81
2019-05-15T06:04:12.612Z,97125.18
2019-05-15T06:06:40.115Z,97117.61
2019-05-15T06:09:09.245Z,97133.30
2019-05-15T06:11:35.078Z,97145.41
2019-05-15T06:14:02.710Z,97141.08
2019-05-15T06:16:30.167Z,97143.22
2019-05-15T06:18:58.673Z,97146.16
2019-05-15T06:21:25.399Z,97139.58
2019-05-15T06:23:55.954Z,97137.09
2019-05-15T06:26:20.426Z,97150.88
2019-05-15T06:28:48.984Z,97140.41
2019-05-15T06:31:15.829Z,97132.39
2019-05-15T06:33:43.468Z,97131.38
2019-05-15T06:36:10.455Z,97120.88
2019-05-15T06:38:39.307Z,97121.94
2019-05-15T06:41:05.515Z,97124.20
2019-05-15T06:43:33.033Z,97111.66
2019-05-15T06:46:00.492Z,97129.10
2019-05-15T06:48:28.908Z,97137.77
2019-05-15T06:50:57.833Z,97134.14
2019-05-15T06:53:23.100Z,97119.72
2019-05-15T06:55:50.735Z,97112.14
2019-05-15T06:58:19.194Z,97132.22
2019-05-15T07:00:48.433Z,97129.33
2019-05-15T07:03:21.551Z,97146.80
2019-05-15T07:05:40.694Z,97133.58
2019-05-15T07:08:09.039Z,97136.45
2019-05-15T07:10:37.680Z,97134.89
2019-05-15T07:13:03.353Z,97141.08
2019-05-15T07:15:30.810Z,97131.64
2019-05-15T07:17:58.256Z,97123.78
2019-05-15T07:20:28.353Z,97125.42
2019-05-15T07:22:53.303Z,97120.05
2019-05-15T07:25:20.816Z,97118.77
2019-05-15T07:27:47.973Z,97116.19
2019-05-15T07:30:14.833Z,97115.23
2019-05-15T07:32:41.841Z,97104.72
2019-05-15T07:35:09.408Z,97114.20
2019-05-15T07:37:38.674Z,97121.91
2019-05-15T07:40:04.717Z,97114.33
2019-05-15T07:42:31.863Z,97116.98
2019-05-15T07:44:59.337Z,97114.63
2019-05-15T07:47:29.224Z,97119.27
2019-05-15T07:49:54.477Z,97112.80
2019-05-15T07:52:22.222Z,97089.84
2019-05-15T07:54:49.732Z,97094.17
2019-05-15T07:57:19.311Z,97099.23
2019-05-15T07:59:45.319Z,97099.03
2019-05-15T08:02:12.855Z,97092.08
2019-05-15T08:04:40.877Z,97099.20
2019-05-15T08:07:09.129Z,97099.81
2019-05-15T08:09:35.880Z,97102.97
2019-05-15T08:12:03.474Z,97119.97
2019-05-15T08:14:30.825Z,97104.66
2019-05-15T08:16:59.197Z,97101.59
2019-05-15T08:19:25.871Z,97094.86
2019-05-15T08:21:53.320Z,97105.52
2019-05-15T08:24:20.810Z,97112.13
2019-05-15T08:26:48.781Z,97117.55
2019-05-15T08:29:19.166Z,97108.59
2019-05-15T08:31:43.375Z,97103.79
2019-05-15T08:34:15.902Z,97098.41
2019-05-15T08:36:38.602Z,97104.72
2019-05-15T08:39:08.345Z,97099.30
2019-05-15T08:41:33.360Z,97107.38
2019-05-15T08:44:00.810Z,97107.53
2019-05-15T08:46:28.356Z,97120.34
2019-05-15T08:48:58.173Z,97099.78
2019-05-15T08:51:23.368Z,97101.97
2019-05-15T08:53:50.818Z,97106.41
2019-05-15T08:56:19.393Z,97099.92
2019-05-15T08:58:45.780Z,97098.80
2019-05-15T09:01:13.245Z,97084.17
2019-05-15T09:03:40.737Z,97093.30
2019-05-15T09:06:09.194Z,97080.14
2019-05-15T09:08:38.754Z,97078.89
2019-05-15T09:11:03.661Z,97066.61
2019-05-15T09:13:31.178Z,97080.70
2019-05-15T09:15:59.020Z,97072.28
2019-05-15T09:18:28.199Z,97076.22
2019-05-15T09:20:53.624Z,97090.00
2019-05-15T09:23:21.191Z,97076.05
2019-05-15T09:25:49.548Z,97066.37
2019-05-15T09:28:18.623Z,97068.82
2019-05-15T09:30:43.684Z,97069.74
2019-05-15T09:33:11.162Z,97071.09
2019-05-15T09:35:39.392Z,97069.39
2019-05-15T09:38:08.524Z,97068.36
2019-05-15T09:40:45.278Z,97065.63
2019-05-15T09:43:01.300Z,97072.06
2019-05-15T09:45:28.762Z,97068.74
2019-05-15T09:47:58.969Z,97068.31
2019-05-15T09:50:24.530Z,97060.45
2019-05-15T09:52:52.017Z,97071.77
2019-05-15T09:55:19.719Z,97068.76
2019-05-15T09:57:49.122Z,97069.31
2019-05-15T10:00:14.854Z,97065.70
2019-05-15T10:02:42.315Z,97056.47
2019-05-15T10:05:11.328Z,97064.82
2019-05-15T10:07:40.123Z,97056.70
2019-05-15T10:10:08.538Z,97061.35
2019-05-15T10:12:35.074Z,97052.95
2019-05-15T10:15:01.925Z,97063.27
2019-05-15T10:17:29.511Z,97056.28
2019-05-15T10:19:58.229Z,97057.31
2019-05-15T10:22:24.686Z,97051.58
2019-05-15T10:24:52.219Z,97043.73
2019-05-15T10:27:19.770Z,97053.22
2019-05-15T10:29:48.427Z,97049.89
2019-05-15T10:32:14.788Z,97060.84
2019-05-15T10:34:42.336Z,97039.34
2019-05-15T10:37:09.793Z,97040.14
2019-05-15T10:39:38.471Z,97044.47
2019-05-15T10:42:05.303Z,97041.05
2019-05-15T10:44:32.784Z,97038.23
2019-05-15T10:47:00.218Z,97037.78
2019-05-15T10:49:28.229Z,97038.93
2019-05-15T10:51:55.365Z,97028.11
2019-05-15T10:54:22.878Z,97039.97
2019-05-15T10:56:50.495Z,97030.60
2019-05-15T10:59:18.419Z,97027.94
2019-05-15T11:01:48.471Z,97026.39
2019-05-15T11:04:13.352Z,97021.50
2019-05-15T11:06:40.846Z,97022.39
2019-05-15T11:09:08.696Z,97023.22
2019-05-15T11:11:35.882Z,97021.11
2019-05-15T11:14:03.323Z,97016.67
2019-05-15T11:16:30.777Z,97025.20
2019-05-15T11:18:58.589Z,97017.19
2019-05-15T11:21:25.310Z,97017.62
2019-05-15T11:23:52.855Z,97017.12
2019-05-15T11:26:20.481Z,97019.37
2019-05-15T11:28:49.722Z,97001.71
2019-05-15T11:31:15.495Z,97009.73
2019-05-15T11:33:42.985Z,97014.69
2019-05-15T11:36:10.009Z,97011.75
2019-05-15T11:38:38.207Z,97002.53
2019-05-15T11:41:08.424Z,97000.86
2019-05-15T11:43:33.484Z,96999.33
2019-05-15T11:46:00.945Z,97008.39
2019-05-15T11:48:29.830Z,96996.30
2019-05-15T11:50:55.901Z,97001.41
2019-05-15T11:53:24.267Z,97013.99
2019-05-15T11:55:51.763Z,97008.77
2019-05-15T11:58:19.389Z,96991.92
2019-05-15T12:00:48.797Z,97001.64
2019-05-15T12:03:14.259Z,96992.16
2019-05-15T12:05:41.899Z,96991.52
2019-05-15T12:08:12.470Z,96984.02
2019-05-15T12:10:38.959Z,96984.27
2019-05-15T12:13:03.597Z,97000.59
2019-05-15T12:15:31.632Z,96987.68
2019-05-15T12:17:59.254Z,96982.77
2019-05-15T12:20:28.608Z,96998.18
2019-05-15T12:22:54.197Z,96998.60
2019-05-15T12:25:21.648Z,96997.74
2019-05-15T12:27:49.324Z,97006.09
2019-05-15T12:30:19.645Z,97007.70
2019-05-15T12:32:44.573Z,96994.07
2019-05-15T12:35:12.051Z,96983.67
2019-05-15T12:37:40.213Z,97001.95
2019-05-15T12:59:48.123Z,96995.52
2019-05-15T13:02:15.632Z,96990.03
2019-05-15T13:04:43.066Z,96999.91
2019-05-15T13:07:16.473Z,97009.77
2019-05-15T13:09:38.232Z,97001.86
2019-05-15T13:12:05.658Z,97000.75
2019-05-15T13:14:33.116Z,96996.92
2019-05-15T13:17:00.821Z,97000.70
2019-05-15T13:19:28.548Z,96978.22
2019-05-15T13:21:57.841Z,96991.08
2019-05-15T13:24:23.335Z,96991.48
2019-05-15T13:26:50.815Z,96995.94
2019-05-15T13:29:18.409Z,96995.70
2019-05-15T13:31:47.668Z,96999.69
2019-05-15T13:34:13.361Z,97006.48
2019-05-15T13:36:40.863Z,96993.98
2019-05-15T13:39:08.436Z,96995.16
2019-05-15T13:41:38.410Z,97012.27
2019-05-15T13:44:03.450Z,97007.65
2019-05-15T13:46:32.938Z,97013.23
2019-05-15T13:48:59.465Z,97005.05
2019-05-15T13:51:28.818Z,96993.92
2019-05-15T13:53:54.093Z,96998.64
2019-05-15T13:56:21.577Z,96992.61
2019-05-15T13:58:49.038Z,96991.31
2019-05-15T14:01:19.244Z,97007.95
2019-05-15T14:03:44.238Z,97005.41
2019-05-15T14:06:11.770Z,97010.59
2019-05-15T14:08:39.283Z,97004.34
2019-05-15T14:11:08.626Z,96997.00
2019-05-15T14:13:34.247Z,96989.48
2019-05-15T14:16:01.791Z,97003.02
2019-05-15T14:18:29.300Z,96983.81
2019-05-15T14:20:58.422Z,97000.78
2019-05-15T14:23:24.267Z,96991.30
2019-05-15T14:25:51.830Z,97003.64
2019-05-15T14:28:19.283Z,96986.16
2019-05-15T14:30:46.791Z,96988.38
2019-05-15T14:33:14.321Z,96990.19
2019-05-15T14:35:41.923Z,96983.09
2019-05-15T14:38:11.037Z,97001.45
2019-05-15T14:40:37.058Z,97004.67
2019-05-15T14:43:04.536Z,96999.39
2019-05-15T14:45:32.152Z,96990.09
2019-05-15T14:47:59.667Z,96989.16
2019-05-15T14:50:28.389Z,96998.79
2019-05-15T14:52:54.632Z,96987.83
2019-05-15T14:55:22.214Z,97002.05
2019-05-15T14:57:50.632Z,96999.11
2019-05-15T15:00:19.880Z,96999.41
2019-05-15T15:02:45.655Z,97002.84
2019-05-15T15:05:13.148Z,96992.80
2019-05-15T15:07:41.183Z,97001.80
2019-05-15T15:10:08.654Z,97009.11
2019-05-15T15:12:39.160Z,97003.88
2019-05-15T15:15:03.706Z,96990.39
2019-05-15T15:17:31.159Z,96991.88
2019-05-15T15:20:00.162Z,97006.17
2019-05-15T15:22:28.386Z,96999.43
2019-05-15T15:24:53.715Z,97003.97
2019-05-15T15:27:21.318Z,97000.62
2019-05-15T15:29:48.818Z,97009.55
2019-05-15T15:32:16.287Z,97010.22
2019-05-15T15:34:43.746Z,96999.02
2019-05-15T15:37:11.595Z,97012.87
2019-05-15T15:39:39.259Z,97022.84
2019-05-15T15:42:08.588Z,97016.77
2019-05-15T15:44:34.732Z,97008.20
2019-05-15T15:47:02.201Z,97018.58
2019-05-15T15:49:29.855Z,97013.42
2019-05-15T15:51:58.461Z,97014.03
2019-05-15T15:54:27.989Z,97011.88
2019-05-15T15:56:53.913Z,97014.22
2019-05-15T15:59:21.863Z,97021.27
2019-05-15T16:01:49.671Z,97014.51
2019-05-15T16:04:18.732Z,97004.51
2019-05-15T16:06:44.578Z,97011.52
2019-05-15T16:09:12.114Z,97012.48
2019-05-15T16:11:39.588Z,97020.99
2019-05-15T16:14:09.223Z,97017.72
2019-05-15T16:16:37.917Z,97017.97
2019-05-15T16:19:03.021Z,97013.52
2019-05-15T16:21:31.137Z,97017.16
2019-05-15T16:23:58.597Z,97017.17
2019-05-15T16:26:26.082Z,97032.19
2019-05-15T16:28:54.329Z,97029.28
2019-05-15T16:31:21.811Z,97029.48
2019-05-15T16:33:49.265Z,97028.77
2019-05-15T16:36:18.339Z,97020.03
2019-05-15T16:38:44.341Z,97026.92
2019-05-15T16:41:11.796Z,97027.89
2019-05-15T16:43:39.331Z,97025.63
2019-05-15T16:46:09.187Z,97025.25
2019-05-15T16:48:34.962Z,97022.31
2019-05-15T16:51:02.502Z,97018.14
2019-05-15T16:53:29.963Z,97022.48
2019-05-15T16:55:58.662Z,97031.78
2019-05-15T16:58:25.432Z,97026.36
2019-05-15T17:00:53.163Z,97021.28
2019-05-15T17:03:20.620Z,97029.40
2019-05-15T17:05:48.205Z,97025.84
2019-05-15T17:08:17.745Z,97030.10
2019-05-15T17:10:43.340Z,97034.30
2019-05-15T17:13:10.850Z,97033.24
2019-05-15T17:15:38.590Z,97036.22
2019-05-15T17:18:08.994Z,97036.25
2019-05-15T17:20:34.391Z,97033.88
2019-05-15T17:23:01.887Z,97036.30
2019-05-15T17:25:29.355Z,97039.73
2019-05-15T17:27:58.431Z,97046.44
2019-05-15T17:30:24.400Z,97042.86
2019-05-15T17:32:51.880Z,97040.83
2019-05-15T17:35:19.453Z,97052.59
2019-05-15T17:37:48.720Z,97049.68
2019-05-15T17:40:15.113Z,97052.27
2019-05-15T17:42:42.684Z,97063.39
2019-05-15T17:45:10.229Z,97061.08
2019-05-15T17:47:38.732Z,97062.53
2019-05-15T17:50:05.195Z,97057.81
2019-05-15T17:52:32.659Z,97070.94
2019-05-15T17:55:00.140Z,97061.31
2019-05-15T17:57:28.613Z,97057.36
2019-05-15T17:59:55.797Z,97062.45
2019-05-15T18:02:23.311Z,97064.48
2019-05-15T18:04:50.858Z,97060.95
2019-05-15T18:07:18.963Z,97046.53
2019-05-15T18:09:51.563Z,97046.64
2019-05-15T18:12:14.207Z,97046.23
2019-05-15T18:14:41.707Z,97054.34
2019-05-15T18:17:09.968Z,97053.45
2019-05-15T18:19:38.041Z,97047.04
2019-05-15T18:22:05.075Z,97052.95
2019-05-15T18:24:32.650Z,97067.10
2019-05-15T18:27:00.281Z,97056.27
2019-05-15T18:29:27.953Z,97052.69
2019-05-15T18:31:55.605Z,97053.55
2019-05-15T18:34:23.230Z,97059.63
2019-05-15T18:36:50.710Z,97045.05
2019-05-15T18:39:18.182Z,97051.20
2019-05-15T18:41:45.676Z,97036.34
2019-05-15T18:44:13.234Z,97042.74
2019-05-15T18:46:40.931Z,97044.59
2019-05-15T18:49:08.487Z,97038.68
2019-05-15T18:51:38.415Z,97042.14
2019-05-15T18:54:03.546Z,97042.41
2019-05-15T18:56:31.017Z,97043.67
2019-05-15T18:58:58.619Z,97037.56
2019-05-15T19:01:28.278Z,97053.09
2019-05-15T19:03:53.635Z,97049.97
2019-05-15T19:06:21.525Z,97058.86
2019-05-15T19:08:49.010Z,97050.84
2019-05-15T19:11:18.362Z,97063.34
2019-05-15T19:13:44.124Z,97056.94
2019-05-15T19:16:11.683Z,97045.59
2019-05-15T19:18:39.229Z,97057.94
2019-05-15T19:21:07.948Z,97055.70
2019-05-15T19:23:34.224Z,97061.05
2019-05-15T19:26:01.732Z,97064.54
2019-05-15T19:28:29.188Z,97055.86
2019-05-15T19:30:58.554Z,97046.24
2019-05-15T19:33:34.502Z,97063.16
2019-05-15T19:35:51.763Z,97051.27
2019-05-15T19:38:19.285Z,97063.48
2019-05-15T19:40:47.869Z,97061.59
2019-05-15T19:43:15.289Z,97068.58
2019-05-15T19:45:42.829Z,97079.69
2019-05-15T19:48:10.477Z,97076.45
2019-05-15T19:50:38.413Z,97065.24
2019-05-15T19:53:08.037Z,97055.31
2019-05-15T19:55:33.480Z,97063.06
2019-05-15T19:58:01.002Z,97053.88
2019-05-15T20:00:28.816Z,97048.62
2019-05-15T20:02:58.102Z,97058.20
2019-05-15T20:05:23.545Z,97054.67
2019-05-15T20:07:51.011Z,97058.23
2019-05-15T20:10:18.795Z,97056.63
2019-05-15T20:12:47.857Z,97055.41
2019-05-15T20:15:13.511Z,97059.09
2019-05-15T20:17:41.026Z,97077.59
2019-05-15T20:20:08.914Z,97068.14
2019-05-15T20:22:37.508Z,97071.28
2019-05-15T20:25:03.534Z,97070.80
2019-05-15T20:27:30.990Z,97069.64
2019-05-15T20:29:58.723Z,97073.28
2019-05-15T20:32:27.821Z,97071.55
2019-05-15T20:34:53.788Z,97073.27
2019-05-15T20:37:21.481Z,97072.47
2019-05-15T20:39:50.174Z,97064.40
2019-05-15T20:42:18.116Z,97074.80
2019-05-15T20:44:45.178Z,97073.49
2019-05-15T20:47:12.636Z,97063.98
2019-05-15T20:49:41.330Z,97069.90
2019-05-15T20:52:08.827Z,97071.11
2019-05-15T20:54:38.608Z,97070.76
2019-05-15T20:57:03.959Z,97073.13
2019-05-15T20:59:31.398Z,97071.27
2019-05-15T21:01:59.456Z,97067.40
2019-05-15T21:04:28.071Z,97064.20
2019-05-15T21:06:54.148Z,97066.66
2019-05-15T21:09:21.675Z,97061.56
2019-05-15T21:11:49.168Z,97064.76
2019-05-15T21:14:16.629Z,97065.75
2019-05-15T21:16:44.080Z,97062.61
2019-05-15T21:19:11.555Z,97071.23
2019-05-15T21:21:39.034Z,97062.83
2019-05-15T21:24:06.527Z,97066.59
2019-05-15T21:26:34.225Z,97062.91
2019-05-15T21:29:01.733Z,97061.06
2019-05-15T21:31:29.200Z,97059.27
2019-05-15T21:33:58.756Z,97053.05
2019-05-15T21:36:24.206Z,97051.87
2019-05-15T21:38:51.666Z,97053.98
2019-05-15T21:41:19.100Z,97045.81
2019-05-15T21:43:48.239Z,97047.33
2019-05-15T21:46:14.068Z,97042.30
2019-05-15T21:48:41.543Z,97040.98
2019-05-15T21:51:11.835Z,97035.10
2019-05-15T21:53:38.757Z,97034.25
2019-05-15T21:56:03.991Z,97033.74
2019-05-15T21:58:31.633Z,97028.55
2019-05-15T22:00:59.159Z,97026.95
2019-05-15T22:03:28.526Z,97028.36
2019-05-15T22:05:54.120Z,97024.81
2019-05-15T22:08:21.570Z,97024.56
2019-05-15T22:10:49.061Z,97023.38
2019-05-15T22:13:16.556Z,97024.52
2019-05-15T22:15:44.023Z,97022.70
2019-05-15T22:18:11.807Z,97019.71
2019-05-15T22:20:38.963Z,97015.52
2019-05-15T22:23:08.228Z,97017.22
2019-05-15T22:25:33.987Z,97015.49
2019-05-15T22:28:01.431Z,97009.27
2019-05-15T22:30:30.329Z,97009.94
2019-05-15T22:32:58.463Z,97005.55
2019-05-15T22:35:23.991Z,97003.49
2019-05-15T22:37:51.466Z,97014.59
2019-05-15T22:40:18.969Z,97010.84
2019-05-15T22:42:48.611Z,97009.31
2019-05-15T22:45:13.924Z,97006.81
2019-05-15T22:47:41.430Z,97004.91
2019-05-15T22:50:08.950Z,97002.32
2019-05-15T22:52:38.726Z,97002.86
2019-05-15T22:55:04.080Z,96994.30
2019-05-15T22:57:31.594Z,96997.72
2019-05-15T22:59:59.050Z,96995.73
2019-05-15T23:02:26.493Z,96983.17
2019-05-15T23:04:54.060Z,96986.09
2019-05-15T23:07:21.558Z,96989.14
2019-05-15T23:09:49.093Z,96991.08
2019-05-15T23:12:18.282Z,96986.14
2019-05-15T23:14:44.454Z,96982.80
2019-05-15T23:17:11.910Z,96983.58
2019-05-15T23:19:39.495Z,96974.82
2019-05-15T23:22:08.390Z,96971.91
2019-05-15T23:24:34.558Z,96970.94
2019-05-15T23:27:02.039Z,96965.94
2019-05-15T23:29:29.491Z,96965.66
2019-05-15T23:31:58.434Z,96962.36
2019-05-15T23:34:27.873Z,96966.47
2019-05-15T23:36:52.981Z,96958.42
2019-05-15T23:39:20.423Z,96957.63
2019-05-15T23:41:47.895Z,96956.70
2019-05-15T23:44:15.336Z,96951.28
2019-05-15T23:46:42.798Z,96951.55
2019-05-15T23:49:10.256Z,96950.63
2019-05-15T23:51:38.471Z,96945.80
2019-05-15T23:54:05.195Z,96942.28
2019-05-15T23:56:32.639Z,96941.86
2019-05-15T23:59:00.090Z,96939.45
